Time;durP1;ratioP1;P1;durP2;ratioP2;P2;SDS_P1;SDS_P2;PMS_P1;PMS_P2;Temp;Humidity;BMP_temperature;BMP_pressure;BME280_temperature;BME280_humidity;BME280_pressure;Samples;Min_cycle;Max_cycle;Signal;HPM_P1;HPM_P2
2021/05/16 00:00:13;;;;;;;14.57;8.00;;;16.20;73.50;;;;;;5072866;28;20475;-58
2021/05/16 00:02:39;;;;;;;12.02;6.80;;;16.20;73.70;;;;;;5072617;28;20029;-58
2021/05/16 00:05:06;;;;;;;12.65;7.45;;;16.10;73.60;;;;;;5072625;28;20523;-58
2021/05/16 00:07:31;;;;;;;11.55;7.88;;;16.20;73.60;;;;;;5073080;28;20025;-58
2021/05/16 00:09:57;;;;;;;11.77;7.30;;;16.20;73.70;;;;;;5072993;28;20110;-58
2021/05/16 00:12:22;;;;;;;13.13;7.10;;;16.10;73.50;;;;;;5072117;28;20024;-58
2021/05/16 00:14:48;;;;;;;15.45;7.95;;;16.10;73.50;;;;;;5073170;28;20040;-58
2021/05/16 00:17:15;;;;;;;15.63;8.55;;;16.10;73.50;;;;;;5072973;28;20062;-58
2021/05/16 00:19:40;;;;;;;14.50;8.23;;;16.10;73.60;;;;;;5071675;28;20495;-58
2021/05/16 00:22:07;;;;;;;13.45;7.80;;;16.10;73.60;;;;;;5072914;28;20040;-58
2021/05/16 00:24:32;;;;;;;12.40;7.88;;;16.00;73.50;;;;;;5071926;28;20536;-58
2021/05/16 00:26:58;;;;;;;17.13;8.32;;;16.00;73.60;;;;;;5073137;28;20021;-58
2021/05/16 00:29:24;;;;;;;15.63;7.82;;;16.00;73.60;;;;;;5072768;28;20464;-58
2021/05/16 00:31:52;;;;;;;12.82;7.70;;;16.00;73.50;;;;;;5064619;28;20083;-58
2021/05/16 00:34:18;;;;;;;11.30;7.05;;;16.00;73.60;;;;;;5066775;28;20036;-58
2021/05/16 00:36:44;;;;;;;12.48;7.60;;;15.90;73.50;;;;;;5072837;28;20084;-58
2021/05/16 00:39:09;;;;;;;12.65;7.60;;;15.90;73.50;;;;;;5072011;28;20203;-58
2021/05/16 00:41:35;;;;;;;10.25;7.32;;;15.90;73.60;;;;;;5054630;28;20446;-58
2021/05/16 00:44:01;;;;;;;9.98;7.07;;;16.00;73.70;;;;;;5072829;28;20430;-58
2021/05/16 00:46:29;;;;;;;12.30;6.85;;;15.90;73.70;;;;;;5071900;28;20038;-58
2021/05/16 00:48:55;;;;;;;12.30;7.35;;;15.90;73.70;;;;;;5071358;28;20028;-58
2021/05/16 00:51:21;;;;;;;11.57;7.00;;;15.90;73.70;;;;;;5071585;28;20368;-58
2021/05/16 00:53:47;;;;;;;13.88;7.20;;;15.90;73.70;;;;;;5071954;28;20036;-58
2021/05/16 00:56:13;;;;;;;11.50;6.25;;;15.90;73.80;;;;;;5071389;28;20047;-58
2021/05/16 00:58:39;;;;;;;12.63;6.93;;;15.90;74.00;;;;;;5070908;28;20483;-58
2021/05/16 01:01:09;;;;;;;11.95;7.00;;;15.80;73.90;;;;;;5071656;28;20441;-58
2021/05/16 01:03:37;;;;;;;11.63;6.95;;;15.80;74.00;;;;;;5071318;28;20037;-58
2021/05/16 01:06:03;;;;;;;11.18;6.63;;;15.90;74.10;;;;;;5072209;28;20017;-58
2021/05/16 01:08:35;;;;;;;11.90;7.23;;;15.80;74.80;;;;;;5070512;28;20028;-58
2021/05/16 01:11:01;;;;;;;9.95;6.70;;;15.80;74.20;;;;;;5070972;28;20069;-58
2021/05/16 01:13:27;;;;;;;13.35;7.22;;;15.80;74.20;;;;;;5071258;28;20024;-58
2021/05/16 01:15:56;;;;;;;12.27;6.65;;;15.80;74.20;;;;;;5071658;28;20028;-58
2021/05/16 01:18:22;;;;;;;9.70;6.13;;;15.80;74.30;;;;;;5071025;28;20060;-58
2021/05/16 01:20:50;;;;;;;10.73;6.55;;;15.80;74.20;;;;;;5070128;28;20490;-58
2021/05/16 01:23:30;;;;;;;15.68;5.78;;;15.80;74.30;;;;;;5072579;28;20036;-58
2021/05/16 01:26:01;;;;;;;9.52;6.50;;;15.80;74.30;;;;;;5071000;28;20028;-58
2021/05/16 01:28:27;;;;;;;9.10;5.72;;;15.80;74.40;;;;;;5071682;28;20028;-58
2021/05/16 01:30:53;;;;;;;9.60;5.78;;;15.80;74.40;;;;;;5073070;28;20040;-58
2021/05/16 01:33:20;;;;;;;8.18;5.50;;;15.80;74.50;;;;;;5074776;28;20017;-58
2021/05/16 01:35:48;;;;;;;10.40;5.72;;;15.70;74.50;;;;;;5074040;28;20039;-59
2021/05/16 01:38:15;;;;;;;8.85;5.38;;;15.80;74.60;;;;;;5071247;28;20139;-58
2021/05/16 01:40:41;;;;;;;8.73;5.53;;;15.70;74.60;;;;;;5055995;28;20116;-58
2021/05/16 01:43:20;;;;;;;7.97;5.43;;;15.70;74.60;;;;;;5072297;28;20027;-58
2021/05/16 01:45:46;;;;;;;10.35;5.88;;;15.70;74.60;;;;;;5075832;28;20032;-58
2021/05/16 01:48:12;;;;;;;8.95;4.95;;;15.70;74.80;;;;;;5075812;28;20051;-58
2021/05/16 01:50:40;;;;;;;8.05;5.03;;;15.70;74.70;;;;;;5075071;28;20108;-58
2021/05/16 01:53:08;;;;;;;8.10;5.28;;;15.70;74.80;;;;;;5075751;28;20082;-58
2021/05/16 01:55:35;;;;;;;7.38;4.97;;;15.70;74.80;;;;;;5075668;28;20028;-58
2021/05/16 01:58:01;;;;;;;9.95;5.47;;;15.70;74.80;;;;;;5074826;28;20444;-58
2021/05/16 02:00:40;;;;;;;8.77;5.15;;;15.70;74.80;;;;;;5074874;28;20139;-58
2021/05/16 02:03:13;;;;;;;8.43;5.18;;;15.60;74.80;;;;;;5065027;28;20041;-58
2021/05/16 02:05:41;;;;;;;7.70;5.32;;;15.70;74.90;;;;;;5072566;28;20078;-58
2021/05/16 02:08:10;;;;;;;9.20;5.70;;;15.70;75.00;;;;;;5075020;28;20024;-58
2021/05/16 02:10:38;;;;;;;7.45;5.60;;;15.60;75.00;;;;;;5073200;28;20025;-58
2021/05/16 02:13:10;;;;;;;9.23;6.00;;;15.60;75.00;;;;;;5075443;28;20032;-59
2021/05/16 02:15:38;;;;;;;10.68;5.93;;;15.60;75.00;;;;;;5074025;28;20044;-58
2021/05/16 02:18:06;;;;;;;10.55;6.05;;;15.60;75.00;;;;;;5074377;28;20484;-58
2021/05/16 02:20:32;;;;;;;8.07;5.30;;;15.60;75.10;;;;;;5075031;28;20025;-58
2021/05/16 02:22:59;;;;;;;8.40;5.03;;;15.60;75.10;;;;;;5073809;28;20059;-58
2021/05/16 02:25:26;;;;;;;8.07;5.32;;;15.60;75.10;;;;;;5072886;28;20028;-58
2021/05/16 02:27:52;;;;;;;9.85;6.10;;;15.60;75.10;;;;;;5075378;28;20029;-58
2021/05/16 02:30:20;;;;;;;10.50;6.47;;;15.60;75.10;;;;;;5074788;28;20555;-58
2021/05/16 02:32:47;;;;;;;12.18;6.15;;;15.60;75.20;;;;;;5074428;28;20058;-58
2021/05/16 02:35:14;;;;;;;8.93;5.60;;;15.60;75.20;;;;;;5074961;28;20479;-58
2021/05/16 02:37:46;;;;;;;10.48;5.78;;;15.50;75.80;;;;;;5060270;28;20033;-58
2021/05/16 02:40:14;;;;;;;8.82;5.75;;;15.50;75.10;;;;;;5072911;28;20075;-58
2021/05/16 02:42:42;;;;;;;10.00;6.07;;;15.50;75.20;;;;;;5073128;28;20525;-58
2021/05/16 02:45:11;;;;;;;14.50;5.93;;;15.50;75.20;;;;;;5074182;28;20020;-58
2021/05/16 02:47:37;;;;;;;8.13;5.60;;;15.50;75.20;;;;;;5073223;28;20025;-58
2021/05/16 02:50:05;;;;;;;11.48;6.57;;;15.50;75.30;;;;;;5073416;28;20017;-58
2021/05/16 02:52:50;;;;;;;10.00;6.70;;;15.50;75.30;;;;;;5072479;28;20029;-58
2021/05/16 02:55:19;;;;;;;12.05;6.00;;;15.50;76.00;;;;;;5074678;28;20032;-58
2021/05/16 02:57:45;;;;;;;10.05;6.18;;;15.50;75.30;;;;;;5074237;28;20024;-58
2021/05/16 03:00:13;;;;;;;8.55;6.20;;;15.50;75.40;;;;;;5072141;28;20147;-58
2021/05/16 03:02:38;;;;;;;8.60;6.15;;;15.40;75.40;;;;;;5074254;28;20071;-58
2021/05/16 03:05:05;;;;;;;12.80;6.13;;;15.40;75.40;;;;;;5074262;28;20032;-58
2021/05/16 03:07:31;;;;;;;12.30;6.68;;;15.50;75.50;;;;;;5072376;28;20031;-58
2021/05/16 03:09:57;;;;;;;10.05;6.63;;;15.50;75.60;;;;;;5072771;28;20016;-58
2021/05/16 03:12:23;;;;;;;10.52;6.22;;;15.40;75.50;;;;;;5072936;28;20102;-58
2021/05/16 03:14:49;;;;;;;9.30;6.10;;;15.40;75.60;;;;;;5072806;28;20119;-58
2021/05/16 03:17:15;;;;;;;12.18;6.28;;;15.40;75.60;;;;;;5072657;28;20029;-58
2021/05/16 03:19:41;;;;;;;10.05;6.65;;;15.40;75.70;;;;;;5072606;28;20063;-58
2021/05/16 03:22:09;;;;;;;9.27;6.63;;;15.40;75.70;;;;;;5072077;28;20029;-58
2021/05/16 03:24:37;;;;;;;8.73;6.60;;;15.40;75.80;;;;;;5074162;28;20033;-58
2021/05/16 03:27:10;;;;;;;8.88;6.65;;;15.40;75.80;;;;;;5073753;28;20031;-58
2021/05/16 03:29:35;;;;;;;9.85;6.60;;;15.30;75.70;;;;;;5073105;28;20379;-58
2021/05/16 03:32:01;;;;;;;9.95;6.75;;;15.40;75.80;;;;;;5073505;28;20013;-58
2021/05/16 03:34:27;;;;;;;11.90;7.03;;;15.30;75.80;;;;;;5073229;28;20051;-58
2021/05/16 03:36:53;;;;;;;11.02;6.75;;;15.30;75.90;;;;;;5073621;28;20055;-58
2021/05/16 03:39:19;;;;;;;11.48;7.82;;;15.30;76.00;;;;;;5073708;28;20048;-58
2021/05/16 03:41:44;;;;;;;10.95;8.13;;;15.30;76.00;;;;;;5072878;28;20029;-58
2021/05/16 03:44:10;;;;;;;10.48;7.53;;;15.30;76.00;;;;;;5073372;28;20036;-58
2021/05/16 03:46:36;;;;;;;11.10;7.50;;;15.20;76.10;;;;;;5073474;28;20032;-58
2021/05/16 03:49:02;;;;;;;10.57;7.28;;;15.30;76.30;;;;;;5072517;28;20047;-58
2021/05/16 03:51:28;;;;;;;12.35;8.75;;;15.30;76.30;;;;;;5073497;28;20055;-58
2021/05/16 03:53:53;;;;;;;11.15;8.50;;;15.30;76.40;;;;;;5072844;28;20504;-58
2021/05/16 03:56:19;;;;;;;13.82;8.70;;;15.20;76.50;;;;;;5072632;28;20028;-58
2021/05/16 03:58:45;;;;;;;11.85;7.53;;;15.20;76.50;;;;;;5073045;28;20036;-58
2021/05/16 04:01:10;;;;;;;11.93;7.82;;;15.20;76.50;;;;;;5073031;28;20492;-58
2021/05/16 04:03:36;;;;;;;11.70;8.45;;;15.20;76.60;;;;;;5072616;28;20434;-58
2021/05/16 04:06:02;;;;;;;10.88;8.07;;;15.20;76.70;;;;;;5073133;28;20091;-58
2021/05/16 04:08:27;;;;;;;12.27;9.10;;;15.20;76.70;;;;;;5073239;28;20589;-58
2021/05/16 04:10:53;;;;;;;12.30;8.35;;;15.20;76.80;;;;;;5072428;28;20119;-58
2021/05/16 04:13:19;;;;;;;17.20;9.07;;;15.20;76.80;;;;;;5072902;28;20082;-58
2021/05/16 04:15:44;;;;;;;13.52;8.10;;;15.10;76.90;;;;;;5072978;28;20020;-58
2021/05/16 04:18:10;;;;;;;12.20;8.52;;;15.20;76.90;;;;;;5072153;28;20029;-58
2021/05/16 04:20:36;;;;;;;12.23;9.07;;;15.20;76.90;;;;;;5073142;28;20044;-58
2021/05/16 04:23:02;;;;;;;14.48;9.70;;;15.10;76.90;;;;;;5073082;28;20032;-59
2021/05/16 04:25:28;;;;;;;13.73;9.25;;;15.20;76.90;;;;;;5072159;28;20028;-58
2021/05/16 04:27:54;;;;;;;14.98;10.02;;;15.20;76.90;;;;;;5072507;28;20464;-58
2021/05/16 04:30:20;;;;;;;12.63;9.38;;;15.20;77.00;;;;;;5070553;28;20052;-58
2021/05/16 04:32:46;;;;;;;12.82;9.18;;;15.10;76.80;;;;;;5070437;28;20032;-58
2021/05/16 04:35:12;;;;;;;12.30;8.77;;;15.10;76.90;;;;;;5068620;28;20066;-58
2021/05/16 04:37:38;;;;;;;16.40;10.23;;;15.10;77.00;;;;;;5070534;28;20032;-63
2021/05/16 04:40:05;;;;;;;15.15;10.57;;;15.10;77.10;;;;;;5068084;28;20045;-58
2021/05/16 04:42:31;;;;;;;14.45;10.10;;;15.10;77.10;;;;;;5070507;28;20109;-58
2021/05/16 04:45:00;;;;;;;15.57;10.10;;;15.10;77.30;;;;;;5066426;28;20052;-58
2021/05/16 04:47:26;;;;;;;16.35;10.40;;;15.20;77.40;;;;;;5071101;28;20024;-58
2021/05/16 04:49:52;;;;;;;14.05;9.90;;;15.20;77.20;;;;;;5052593;28;20106;-58
2021/05/16 04:52:17;;;;;;;15.02;10.40;;;15.10;77.20;;;;;;5058150;28;21537;-58
2021/05/16 04:54:43;;;;;;;15.10;9.30;;;15.20;77.40;;;;;;5056668;28;20542;-58
2021/05/16 04:57:09;;;;;;;15.18;10.80;;;15.20;77.40;;;;;;5056652;28;20052;-58
2021/05/16 04:59:34;;;;;;;16.58;10.82;;;15.10;77.40;;;;;;5057763;28;20071;-58
2021/05/16 05:02:00;;;;;;;13.50;10.13;;;15.20;77.60;;;;;;5055858;28;20391;-58
2021/05/16 05:04:26;;;;;;;14.63;10.18;;;15.20;77.50;;;;;;5058072;28;20042;-58
2021/05/16 05:06:52;;;;;;;13.40;10.27;;;15.20;78.30;;;;;;5057834;28;20388;-58
2021/05/16 05:09:18;;;;;;;15.60;10.60;;;15.20;77.70;;;;;;5062623;28;20051;-58
2021/05/16 05:11:43;;;;;;;18.52;11.10;;;15.10;77.70;;;;;;5065229;28;20521;-58
2021/05/16 05:14:09;;;;;;;13.27;9.82;;;15.20;77.90;;;;;;5075682;28;20051;-58
2021/05/16 05:16:35;;;;;;;19.23;12.27;;;15.20;77.90;;;;;;5076213;28;20036;-58
2021/05/16 05:19:00;;;;;;;17.60;11.38;;;15.20;78.10;;;;;;5076488;28;20033;-58
2021/05/16 05:21:26;;;;;;;19.10;10.60;;;15.20;78.20;;;;;;5075462;28;20127;-58
2021/05/16 05:23:52;;;;;;;18.15;10.95;;;15.20;78.00;;;;;;5076379;28;20029;-58
2021/05/16 05:26:17;;;;;;;18.52;12.10;;;15.20;78.20;;;;;;5076204;28;20051;-58
2021/05/16 05:28:43;;;;;;;18.15;11.75;;;15.20;78.20;;;;;;5075172;28;20472;-58
2021/05/16 05:31:09;;;;;;;17.48;11.57;;;15.20;78.30;;;;;;5076036;28;20033;-58
2021/05/16 05:33:34;;;;;;;16.88;10.70;;;15.20;78.50;;;;;;5076123;28;20033;-58
2021/05/16 05:36:00;;;;;;;16.55;11.70;;;15.20;78.40;;;;;;5075279;28;20033;-58
2021/05/16 05:38:29;;;;;;;16.95;11.40;;;15.20;78.40;;;;;;5075839;28;20120;-58
2021/05/16 05:40:54;;;;;;;17.13;11.52;;;15.20;78.70;;;;;;5075840;28;20032;-58
2021/05/16 05:43:20;;;;;;;16.25;11.45;;;15.20;78.70;;;;;;5074993;28;20078;-58
2021/05/16 05:45:46;;;;;;;18.90;9.85;;;15.30;78.20;;;;;;5075865;28;20128;-58
2021/05/16 05:48:15;;;;;;;16.90;10.10;;;15.20;78.00;;;;;;5074923;28;20063;-58
2021/05/16 05:50:40;;;;;;;16.13;10.85;;;15.20;77.30;;;;;;5075614;28;20052;-58
2021/05/16 05:53:06;;;;;;;18.52;10.65;;;15.20;76.80;;;;;;5075700;28;20040;-58
2021/05/16 05:55:33;;;;;;;17.83;12.32;;;15.20;76.70;;;;;;5074796;28;20038;-58
2021/05/16 05:57:59;;;;;;;20.17;11.88;;;15.10;76.90;;;;;;5075461;28;20021;-58
2021/05/16 06:00:28;;;;;;;16.50;10.05;;;15.10;76.70;;;;;;5073950;28;20049;-58
2021/05/16 06:02:58;;;;;;;18.52;11.60;;;15.10;76.40;;;;;;5061058;28;20460;-58
2021/05/16 06:05:26;;;;;;;12.18;7.82;;;15.10;76.40;;;;;;5075405;28;20442;-58
2021/05/16 06:07:52;;;;;;;19.33;10.07;;;15.10;76.10;;;;;;5075277;28;20391;-58
2021/05/16 06:10:18;;;;;;;6.88;4.40;;;15.10;76.30;;;;;;5074637;28;20028;-58
2021/05/16 06:12:44;;;;;;;15.32;8.68;;;15.00;75.80;;;;;;5075092;28;20037;-58
2021/05/16 06:15:10;;;;;;;8.30;4.10;;;15.00;75.70;;;;;;5075355;28;20155;-58
2021/05/16 06:17:37;;;;;;;19.80;8.60;;;15.00;75.70;;;;;;5073831;28;20464;-58
2021/05/16 06:20:03;;;;;;;15.80;8.52;;;14.90;75.80;;;;;;5075153;28;20032;-58
2021/05/16 06:22:30;;;;;;;13.38;6.45;;;15.00;76.00;;;;;;5075284;28;20028;-58
2021/05/16 06:24:55;;;;;;;13.98;8.48;;;14.90;76.00;;;;;;5074176;28;20028;-58
2021/05/16 06:27:21;;;;;;;15.77;7.70;;;14.90;76.00;;;;;;5075095;28;20028;-58
2021/05/16 06:29:46;;;;;;;21.20;10.10;;;14.90;76.00;;;;;;5075025;28;20040;-58
2021/05/16 06:32:12;;;;;;;18.10;8.38;;;14.90;76.00;;;;;;5073980;28;20033;-58
2021/05/16 06:34:38;;;;;;;19.63;9.80;;;14.80;75.90;;;;;;5074917;28;20082;-58
2021/05/16 06:37:04;;;;;;;18.23;9.07;;;14.80;76.00;;;;;;5073477;28;20391;-58
2021/05/16 06:39:30;;;;;;;22.40;9.73;;;14.90;76.10;;;;;;5074051;28;20068;-58
2021/05/16 06:41:56;;;;;;;23.48;12.48;;;14.80;76.10;;;;;;5074937;28;20060;-58
2021/05/16 06:44:23;;;;;;;20.30;10.88;;;14.90;76.40;;;;;;5074119;28;20436;-58
2021/05/16 06:46:49;;;;;;;29.67;13.60;;;14.90;76.40;;;;;;5074826;28;20021;-58
2021/05/16 06:49:15;;;;;;;23.45;11.45;;;14.90;76.30;;;;;;5074429;28;20388;-57
2021/05/16 06:51:41;;;;;;;24.40;12.05;;;14.90;76.10;;;;;;5068506;28;20029;-58
2021/05/16 06:54:07;;;;;;;31.70;13.00;;;14.90;76.00;;;;;;5066659;28;20036;-57
2021/05/16 06:56:36;;;;;;;24.85;9.63;;;14.90;76.20;;;;;;5063603;28;20415;-57
2021/05/16 06:59:03;;;;;;;16.67;7.47;;;14.80;76.30;;;;;;5062098;28;20056;-58
2021/05/16 07:01:29;;;;;;;25.60;12.95;;;14.80;76.30;;;;;;5064746;28;20025;-57
2021/05/16 07:03:54;;;;;;;25.55;12.20;;;14.80;76.70;;;;;;5060990;28;20048;-58
2021/05/16 07:06:20;;;;;;;35.90;15.45;;;14.80;76.80;;;;;;5065843;28;20060;-58
2021/05/16 07:08:47;;;;;;;41.05;15.73;;;14.90;77.00;;;;;;5068134;28;20049;-57
2021/05/16 07:11:16;;;;;;;34.13;11.27;;;14.80;77.20;;;;;;5065249;28;20365;-58
2021/05/16 07:13:41;;;;;;;33.78;16.23;;;14.90;77.10;;;;;;5060558;28;20031;-58
2021/05/16 07:16:07;;;;;;;31.10;15.45;;;14.90;77.50;;;;;;5074115;28;20085;-58
2021/05/16 07:18:33;;;;;;;16.92;7.20;;;14.90;77.50;;;;;;5073711;28;20048;-58
2021/05/16 07:20:59;;;;;;;25.98;13.70;;;15.00;77.00;;;;;;5073366;28;20031;-58
2021/05/16 07:23:24;;;;;;;29.10;13.77;;;15.00;77.40;;;;;;5073639;28;20499;-58
2021/05/16 07:25:50;;;;;;;31.70;11.45;;;15.10;77.60;;;;;;5064874;28;20480;-58
2021/05/16 07:28:16;;;;;;;23.50;12.10;;;15.10;77.30;;;;;;5052892;28;20033;-58
2021/05/16 07:30:41;;;;;;;23.95;10.30;;;15.10;77.00;;;;;;5054707;28;20104;-59
2021/05/16 07:33:07;;;;;;;14.05;6.07;;;15.20;77.00;;;;;;5066203;28;20434;-58
2021/05/16 07:35:33;;;;;;;9.27;2.70;;;15.20;76.70;;;;;;5072086;28;20020;-58
2021/05/16 07:37:59;;;;;;;16.77;7.90;;;15.20;76.40;;;;;;5056801;28;20029;-58
2021/05/16 07:40:25;;;;;;;21.67;10.45;;;15.20;76.70;;;;;;5052441;28;20059;-58
2021/05/16 07:42:51;;;;;;;18.85;8.93;;;15.20;76.90;;;;;;5062977;28;20021;-58
2021/05/16 07:45:19;;;;;;;18.13;8.63;;;15.20;77.10;;;;;;5060952;28;20036;-58
2021/05/16 07:47:44;;;;;;;18.60;9.50;;;15.20;77.00;;;;;;5059905;28;20023;-59
2021/05/16 07:50:12;;;;;;;18.10;7.88;;;15.20;77.00;;;;;;5059037;28;20874;-59
2021/05/16 07:52:38;;;;;;;19.15;8.45;;;15.30;77.20;;;;;;5057119;28;20112;-60
2021/05/16 07:55:05;;;;;;;13.20;6.03;;;15.30;77.20;;;;;;5051280;28;20492;-59
2021/05/16 07:57:30;;;;;;;9.68;4.05;;;15.30;76.90;;;;;;5052216;28;20658;-59
2021/05/16 07:59:56;;;;;;;18.52;9.45;;;15.30;76.80;;;;;;5050393;28;20075;-59
2021/05/16 08:02:22;;;;;;;17.00;7.60;;;15.30;77.80;;;;;;5051395;28;20384;-59
2021/05/16 08:04:47;;;;;;;8.13;4.90;;;15.30;77.20;;;;;;5053043;28;20246;-60
2021/05/16 08:07:13;;;;;;;7.38;4.35;;;15.30;77.30;;;;;;5051923;28;20025;-60
2021/05/16 08:09:39;;;;;;;9.15;4.68;;;15.30;77.40;;;;;;5052487;28;20040;-60
2021/05/16 08:12:05;;;;;;;4.53;2.03;;;15.30;77.50;;;;;;5053881;28;20031;-60
2021/05/16 08:14:30;;;;;;;7.13;3.38;;;15.20;77.50;;;;;;5052130;28;20483;-60
2021/05/16 08:16:56;;;;;;;6.03;3.50;;;15.20;77.60;;;;;;5053966;28;20071;-61
2021/05/16 08:19:23;;;;;;;9.90;3.97;;;15.20;77.70;;;;;;5045555;28;20491;-60
2021/05/16 08:21:48;;;;;;;10.45;5.72;;;15.20;77.90;;;;;;5053392;28;20073;-60
2021/05/16 08:24:15;;;;;;;13.00;5.45;;;15.20;78.00;;;;;;5049253;28;20040;-60
2021/05/16 08:26:43;;;;;;;2.97;1.60;;;15.20;78.00;;;;;;5062619;28;20025;-60
2021/05/16 08:29:09;;;;;;;7.10;4.07;;;15.20;78.00;;;;;;5060818;28;20063;-60
2021/05/16 08:31:37;;;;;;;17.67;4.93;;;15.30;78.00;;;;;;5066112;28;20056;-60
2021/05/16 08:34:05;;;;;;;5.47;2.83;;;15.30;78.10;;;;;;5063026;28;20112;-60
2021/05/16 08:36:35;;;;;;;9.82;3.30;;;15.30;78.00;;;;;;5066129;28;20033;-60
2021/05/16 08:39:03;;;;;;;7.95;4.03;;;15.40;78.00;;;;;;5058173;28;20128;-61
2021/05/16 08:41:29;;;;;;;4.80;2.42;;;15.40;77.90;;;;;;5065568;28;20057;-58
2021/05/16 08:43:54;;;;;;;9.93;3.53;;;15.40;77.80;;;;;;5067767;28;20483;-59
2021/05/16 08:46:21;;;;;;;4.00;2.63;;;15.40;77.80;;;;;;5061469;28;20040;-58
2021/05/16 08:48:47;;;;;;;2.22;1.20;;;15.50;77.80;;;;;;5058076;28;20036;-59
2021/05/16 08:51:15;;;;;;;1.85;0.93;;;15.50;77.50;;;;;;5069906;28;20345;-59
2021/05/16 08:53:40;;;;;;;1.13;1.02;;;15.50;76.90;;;;;;5069861;28;20070;-58
2021/05/16 08:56:07;;;;;;;3.03;0.90;;;15.40;76.30;;;;;;5069202;28;20484;-59
2021/05/16 08:58:33;;;;;;;0.68;0.63;;;15.40;76.40;;;;;;5069095;28;20457;-58
2021/05/16 09:00:59;;;;;;;2.10;0.68;;;15.40;76.20;;;;;;5069708;28;20066;-59
2021/05/16 09:03:25;;;;;;;0.50;0.50;;;15.30;76.40;;;;;;5070461;28;20028;-59
2021/05/16 09:05:53;;;;;;;0.50;0.50;;;15.20;76.70;;;;;;5069507;28;20040;-60
2021/05/16 09:08:20;;;;;;;0.93;0.52;;;15.20;76.90;;;;;;5070376;28;20112;-59
2021/05/16 09:10:57;;;;;;;0.40;0.40;;;15.10;76.90;;;;;;5070660;28;20032;-58
2021/05/16 09:13:38;;;;;;;0.30;0.30;;;15.10;77.20;;;;;;5069900;28;20441;-58
2021/05/16 09:16:11;;;;;;;0.35;0.35;;;15.00;77.40;;;;;;5067834;28;20033;-57
2021/05/16 09:18:51;;;;;;;0.90;0.75;;;15.00;77.70;;;;;;5064893;28;20067;-58
2021/05/16 09:21:29;;;;;;;1.10;1.00;;;15.00;77.90;;;;;;5058281;28;20071;-58
2021/05/16 09:24:04;;;;;;;0.98;0.93;;;15.00;78.10;;;;;;5063349;28;20112;-59
2021/05/16 09:26:50;;;;;;;5.05;1.23;;;15.00;78.30;;;;;;5064457;28;20500;-58
2021/05/16 09:29:30;;;;;;;7.03;1.45;;;15.00;78.30;;;;;;5070023;28;20472;-68
2021/05/16 09:31:57;;;;;;;2.20;1.70;;;15.00;78.40;;;;;;5066564;28;20028;-60
2021/05/16 09:34:23;;;;;;;3.10;1.42;;;15.10;78.40;;;;;;5060365;28;20021;-58
2021/05/16 09:36:50;;;;;;;0.82;0.80;;;15.10;78.50;;;;;;5051548;28;20044;-58
2021/05/16 09:39:22;;;;;;;0.60;0.60;;;15.10;78.20;;;;;;5050243;28;20468;-58
2021/05/16 09:42:15;;;;;;;1.63;1.27;;;15.10;78.30;;;;;;5054507;28;20040;-58
2021/05/16 09:44:46;;;;;;;1.95;1.10;;;15.10;78.50;;;;;;5049291;28;20543;-58
2021/05/16 09:47:26;;;;;;;0.68;0.68;;;15.10;78.60;;;;;;5051993;28;20044;-60
2021/05/16 09:49:59;;;;;;;2.85;0.95;;;15.10;78.60;;;;;;5062378;28;20033;-60
2021/05/16 09:52:34;;;;;;;3.05;1.17;;;15.10;78.60;;;;;;5052607;28;20029;-60
2021/05/16 09:55:01;;;;;;;0.57;0.57;;;15.10;78.70;;;;;;5053665;28;20079;-60
2021/05/16 09:57:29;;;;;;;1.27;0.88;;;15.10;78.70;;;;;;5054424;28;20125;-60
2021/05/16 09:59:55;;;;;;;0.80;0.80;;;15.10;78.80;;;;;;5054318;28;20052;-60
2021/05/16 10:02:25;;;;;;;5.13;1.80;;;15.00;78.90;;;;;;5054129;28;20029;-60
2021/05/16 10:04:55;;;;;;;0.77;0.77;;;15.10;79.10;;;;;;5054387;28;20124;-61
2021/05/16 10:07:23;;;;;;;1.40;0.90;;;15.10;79.00;;;;;;5054232;28;20052;-60
2021/05/16 10:09:52;;;;;;;2.83;0.65;;;15.20;78.90;;;;;;5053360;28;20037;-60
2021/05/16 10:12:19;;;;;;;1.23;0.73;;;15.20;78.60;;;;;;5063621;28;20048;-60
2021/05/16 10:15:10;;;;;;;1.05;0.73;;;15.20;78.40;;;;;;5073630;28;20455;-60
2021/05/16 10:17:37;;;;;;;2.15;0.95;;;15.20;78.10;;;;;;5067362;28;20036;-60
2021/05/16 10:20:15;;;;;;;4.80;1.33;;;15.20;77.80;;;;;;5073370;28;20046;-60
2021/05/16 10:22:45;;;;;;;2.33;1.33;;;15.30;77.80;;;;;;5061469;28;20746;-60
2021/05/16 10:25:11;;;;;;;3.83;1.73;;;15.30;77.70;;;;;;5066927;28;20109;-66
2021/05/16 10:27:42;;;;;;;3.40;1.40;;;15.30;77.80;;;;;;5066153;28;20500;-60
2021/05/16 10:30:12;;;;;;;2.97;1.38;;;15.30;77.90;;;;;;5063307;28;20033;-58
2021/05/16 10:32:58;;;;;;;0.85;0.85;;;15.40;77.90;;;;;;5068182;28;20031;-61
2021/05/16 10:35:23;;;;;;;2.65;1.27;;;15.40;78.00;;;;;;5065526;28;20037;-60
2021/05/16 10:37:55;;;;;;;1.77;1.27;;;15.40;77.90;;;;;;5070706;28;20079;-60
2021/05/16 10:40:25;;;;;;;5.72;2.05;;;15.50;78.00;;;;;;5063681;28;20051;-60
2021/05/16 10:43:12;;;;;;;1.95;1.70;;;15.50;78.00;;;;;;5064256;28;20032;-60
2021/05/16 10:45:39;;;;;;;7.93;1.95;;;15.50;78.20;;;;;;5058750;28;20051;-60
2021/05/16 10:48:16;;;;;;;6.15;2.40;;;15.60;78.20;;;;;;5062510;28;20024;-60
2021/05/16 10:50:47;;;;;;;3.83;2.15;;;15.60;78.20;;;;;;5060246;28;20100;-62
2021/05/16 10:53:39;;;;;;;7.70;2.65;;;15.60;78.30;;;;;;5070753;28;20082;-60
2021/05/16 10:56:19;;;;;;;4.43;2.00;;;15.70;78.40;;;;;;5063106;28;20079;-60
2021/05/16 10:58:48;;;;;;;2.67;1.85;;;15.70;78.20;;;;;;5061564;28;20036;-60
2021/05/16 11:01:32;;;;;;;4.15;2.38;;;15.70;78.00;;;;;;5072468;28;20127;-59
2021/05/16 11:04:00;;;;;;;2.92;1.90;;;15.80;78.10;;;;;;5059641;28;20491;-59
2021/05/16 11:06:38;;;;;;;3.10;1.85;;;15.80;78.00;;;;;;5066050;28;20023;-58
2021/05/16 11:09:07;;;;;;;8.38;1.67;;;15.80;78.30;;;;;;5060102;28;20123;-57
2021/05/16 11:11:48;;;;;;;5.30;2.22;;;15.90;78.40;;;;;;5063728;28;20427;-58
2021/05/16 11:14:17;;;;;;;4.53;2.75;;;15.90;78.00;;;;;;5072425;28;20048;-58
2021/05/16 11:16:49;;;;;;;2.80;1.58;;;15.90;77.90;;;;;;5072109;28;20017;-57
2021/05/16 11:19:15;;;;;;;7.05;1.70;;;16.00;78.30;;;;;;5071365;28;20499;-58
2021/05/16 11:21:41;;;;;;;5.35;1.80;;;16.00;78.20;;;;;;5072023;28;20498;-58
2021/05/16 11:24:08;;;;;;;3.95;1.77;;;16.00;78.10;;;;;;5071932;28;20514;-58
2021/05/16 11:26:33;;;;;;;6.25;1.95;;;16.00;78.10;;;;;;5071194;28;20033;-57
2021/05/16 11:29:00;;;;;;;3.42;2.13;;;16.00;78.00;;;;;;5071964;28;20033;-58
2021/05/16 11:31:32;;;;;;;3.75;1.92;;;16.10;78.00;;;;;;5072166;28;20028;-58
2021/05/16 11:34:04;;;;;;;4.88;2.83;;;16.00;78.00;;;;;;5070911;28;20032;-57
2021/05/16 11:36:32;;;;;;;5.13;3.00;;;16.10;77.80;;;;;;5072149;28;20060;-58
2021/05/16 11:39:00;;;;;;;6.75;3.88;;;16.10;78.40;;;;;;5071576;28;20399;-57
2021/05/16 11:41:30;;;;;;;10.15;3.40;;;16.20;78.50;;;;;;5071181;28;20024;-58
2021/05/16 11:43:56;;;;;;;5.72;2.67;;;16.20;77.90;;;;;;5056039;28;20036;-58
2021/05/16 11:46:26;;;;;;;2.05;1.35;;;16.20;78.20;;;;;;5071280;28;20028;-58
2021/05/16 11:48:52;;;;;;;0.50;0.50;;;16.30;78.30;;;;;;5069798;28;20032;-58
2021/05/16 11:51:18;;;;;;;1.63;1.20;;;16.20;77.90;;;;;;5071420;28;20479;-60
2021/05/16 11:53:49;;;;;;;1.73;1.02;;;16.20;77.80;;;;;;5070575;28;20446;-60
2021/05/16 11:56:26;;;;;;;1.90;1.13;;;16.20;77.70;;;;;;5070457;28;20067;-60
2021/05/16 11:58:57;;;;;;;2.13;1.30;;;16.10;77.70;;;;;;5070505;28;20040;-60
2021/05/16 12:01:26;;;;;;;0.90;0.80;;;16.10;77.90;;;;;;5068505;28;20055;-58
2021/05/16 12:03:59;;;;;;;3.42;1.15;;;16.10;77.90;;;;;;5067194;28;20115;-58
2021/05/16 12:06:28;;;;;;;1.80;0.70;;;16.10;77.60;;;;;;5058297;28;20383;-58
2021/05/16 12:09:07;;;;;;;0.80;0.80;;;16.00;77.50;;;;;;5067583;28;20033;-59
2021/05/16 12:11:34;;;;;;;0.82;0.68;;;16.00;77.40;;;;;;5058403;28;20059;-60
2021/05/16 12:14:11;;;;;;;1.63;0.68;;;16.00;76.90;;;;;;5070082;28;20089;-61
2021/05/16 12:16:38;;;;;;;2.95;0.80;;;16.00;76.70;;;;;;5060392;28;20032;-60
2021/05/16 12:19:04;;;;;;;0.60;0.60;;;15.80;76.60;;;;;;5069488;28;20055;-60
2021/05/16 12:21:30;;;;;;;1.27;0.57;;;15.80;76.70;;;;;;5070792;28;20028;-60
2021/05/16 12:24:02;;;;;;;0.30;0.30;;;15.80;76.60;;;;;;5070278;28;20044;-60
2021/05/16 12:26:30;;;;;;;2.85;1.05;;;15.70;76.60;;;;;;5067869;28;20029;-61
2021/05/16 12:28:57;;;;;;;1.65;0.75;;;15.80;76.90;;;;;;5064533;28;20060;-59
2021/05/16 12:31:24;;;;;;;0.57;0.57;;;15.80;77.10;;;;;;5059998;28;20518;-60
2021/05/16 12:33:58;;;;;;;0.50;0.50;;;15.80;77.20;;;;;;5068086;28;20040;-59
2021/05/16 12:36:23;;;;;;;;;;;15.80;77.20;;;;;;5070439;28;20021;-60
2021/05/16 12:38:51;;;;;;;2.17;1.27;;;15.80;77.20;;;;;;5070278;28;20252;-60
2021/05/16 12:41:21;;;;;;;0.50;0.50;;;15.80;77.30;;;;;;5069979;28;20434;-60
2021/05/16 12:44:26;;;;;;;2.10;1.40;;;15.80;77.60;;;;;;5068087;28;20044;-60